createdAt,value
2023-05-27T00:01:37.366Z,100748.55
2023-05-27T00:04:04.786Z,100749.52
2023-05-27T00:06:33.431Z,100749.27
2023-05-27T00:09:00.559Z,100747.87
2023-05-27T00:11:27.918Z,100745.70
2023-05-27T00:13:55.878Z,100750.03
2023-05-27T00:16:23.189Z,100746.74
2023-05-27T00:18:50.390Z,100747.10
2023-05-27T00:21:17.747Z,100748.67
2023-05-27T00:23:47.962Z,100742.05
2023-05-27T00:26:15.004Z,100741.36
2023-05-27T00:28:42.978Z,100742.16
2023-05-27T00:31:10.578Z,100742.46
2023-05-27T00:33:37.679Z,100741.23
2023-05-27T00:36:05.444Z,100734.80
2023-05-27T00:38:32.619Z,100733.21
2023-05-27T00:40:59.645Z,100742.42
2023-05-27T00:43:27.918Z,100734.20
2023-05-27T00:45:55.532Z,100732.20
2023-05-27T00:48:22.842Z,100735.32
2023-05-27T00:50:51.116Z,100730.73
2023-05-27T00:53:18.360Z,100733.63
2023-05-27T00:55:45.412Z,100737.52
2023-05-27T00:58:12.761Z,100738.58
2023-05-27T01:00:40.529Z,100738.20
2023-05-27T01:03:09.668Z,100737.85
2023-05-27T01:05:36.969Z,100737.90
2023-05-27T01:08:13.440Z,100738.52
2023-05-27T01:10:53.698Z,100736.30
2023-05-27T01:13:41.127Z,100735.52
2023-05-27T01:16:11.976Z,100733.58
2023-05-27T01:18:39.117Z,100729.88
2023-05-27T01:21:07.353Z,100732.42
2023-05-27T01:23:34.748Z,100728.55
2023-05-27T01:26:02.132Z,100725.19
2023-05-27T01:28:29.342Z,100725.15
2023-05-27T01:30:56.709Z,100729.46
2023-05-27T01:33:25.063Z,100727.66
2023-05-27T01:35:53.409Z,100726.50
2023-05-27T01:38:21.107Z,100726.71
2023-05-27T01:40:49.086Z,100726.69
2023-05-27T01:43:17.060Z,100729.48
2023-05-27T01:45:44.623Z,100730.39
2023-05-27T01:48:11.701Z,100730.02
2023-05-27T01:50:39.423Z,100728.80
2023-05-27T01:53:06.881Z,100727.17
2023-05-27T01:55:34.540Z,100727.91
2023-05-27T01:58:01.894Z,100724.80
2023-05-27T02:00:30.668Z,100725.49
2023-05-27T02:02:58.033Z,100723.27
2023-05-27T02:05:25.289Z,100723.55
2023-05-27T02:07:53.159Z,100727.05
2023-05-27T02:10:20.194Z,100726.20
2023-05-27T02:12:49.722Z,100725.52
2023-05-27T02:15:17.167Z,100721.34
2023-05-27T02:17:47.627Z,100720.91
2023-05-27T02:20:16.157Z,100722.42
2023-05-27T02:22:44.950Z,100719.40
2023-05-27T02:25:13.133Z,100720.00
2023-05-27T02:27:40.202Z,100725.02
2023-05-27T02:30:08.362Z,100718.27
2023-05-27T02:32:35.452Z,100722.27
2023-05-27T02:35:04.389Z,100721.95
2023-05-27T02:37:31.632Z,100726.27
2023-05-27T02:39:59.099Z,100727.79
2023-05-27T02:42:26.109Z,100731.70
2023-05-27T02:44:53.191Z,100736.25
2023-05-27T02:47:20.356Z,100736.53
2023-05-27T02:49:47.389Z,100733.25
2023-05-27T02:52:14.641Z,100732.61
2023-05-27T02:54:42.604Z,100733.38
2023-05-27T02:57:10.166Z,100734.55
2023-05-27T02:59:38.020Z,100731.89
2023-05-27T03:02:05.937Z,100730.94
2023-05-27T03:04:33.142Z,100733.35
2023-05-27T03:07:00.186Z,100734.00
2023-05-27T03:09:27.246Z,100736.16
2023-05-27T03:11:54.284Z,100734.12
2023-05-27T03:14:21.534Z,100736.02
2023-05-27T03:16:48.596Z,100737.11
2023-05-27T03:19:16.033Z,100732.02
2023-05-27T03:21:43.192Z,100738.27
2023-05-27T03:24:11.866Z,100738.45
2023-05-27T03:26:39.534Z,100740.67
2023-05-27T03:29:07.907Z,100744.56
2023-05-27T03:31:35.124Z,100743.34
2023-05-27T03:34:06.743Z,100744.08
2023-05-27T03:36:38.264Z,100741.81
2023-05-27T03:39:05.936Z,100739.95
2023-05-27T03:41:34.016Z,100736.27
2023-05-27T03:44:01.045Z,100740.02
2023-05-27T03:46:28.312Z,100736.06
2023-05-27T03:48:55.663Z,100741.21
2023-05-27T03:51:23.313Z,100741.52
2023-05-27T03:53:51.621Z,100746.95
2023-05-27T03:56:18.967Z,100747.68
2023-05-27T03:58:46.849Z,100749.45
2023-05-27T04:01:14.064Z,100751.20
2023-05-27T04:03:41.547Z,100749.61
2023-05-27T04:06:08.670Z,100751.35
2023-05-27T04:08:36.826Z,100751.84
2023-05-27T04:11:04.294Z,100751.44
2023-05-27T04:13:31.554Z,100750.05
2023-05-27T04:15:59.148Z,100753.73
2023-05-27T04:18:26.257Z,100753.88
2023-05-27T04:20:53.872Z,100757.56
2023-05-27T04:23:21.558Z,100758.90
2023-05-27T04:25:50.169Z,100759.95
2023-05-27T04:28:18.843Z,100762.84
2023-05-27T04:30:49.788Z,100758.80
2023-05-27T04:33:24.016Z,100762.85
2023-05-27T04:35:54.942Z,100763.22
2023-05-27T04:38:23.214Z,100768.86
2023-05-27T04:40:56.913Z,100770.62
2023-05-27T04:44:02.688Z,100771.13
2023-05-27T04:46:35.103Z,100776.13
2023-05-27T04:49:02.824Z,100776.29
2023-05-27T04:51:30.166Z,100782.00
2023-05-27T04:53:58.045Z,100782.80
2023-05-27T04:56:25.284Z,100783.92
2023-05-27T04:58:52.641Z,100782.42
2023-05-27T05:01:25.948Z,100781.67
2023-05-27T05:04:13.940Z,100780.93
2023-05-27T05:06:52.282Z,100779.54
2023-05-27T05:09:19.330Z,100783.31
2023-05-27T05:11:46.687Z,100787.34
2023-05-27T05:14:14.234Z,100781.80
2023-05-27T05:16:43.302Z,100784.30
2023-05-27T05:19:11.293Z,100781.86
2023-05-27T05:21:39.878Z,100778.30
2023-05-27T05:24:09.498Z,100776.62
2023-05-27T05:26:37.245Z,100776.34
2023-05-27T05:29:05.443Z,100774.50
2023-05-27T05:31:32.635Z,100777.32
2023-05-27T05:34:00.159Z,100775.30
2023-05-27T05:36:27.591Z,100776.84
2023-05-27T05:38:58.316Z,100780.08
2023-05-27T05:41:27.361Z,100781.20
2023-05-27T05:43:56.001Z,100783.15
2023-05-27T05:46:23.263Z,100784.01
2023-05-27T05:48:53.367Z,100786.70
2023-05-27T05:51:26.056Z,100791.48
2023-05-27T05:53:56.759Z,100792.73
2023-05-27T05:56:24.028Z,100797.91
2023-05-27T05:58:51.384Z,100799.23
2023-05-27T06:01:18.978Z,100804.09
2023-05-27T06:03:46.794Z,100807.92
2023-05-27T06:06:25.155Z,100817.38
2023-05-27T06:09:12.562Z,100819.66
2023-05-27T06:11:41.646Z,100823.88
2023-05-27T06:14:08.782Z,100829.95
2023-05-27T06:16:40.920Z,100827.91
2023-05-27T06:19:08.818Z,100830.24
2023-05-27T06:21:35.981Z,100826.82
2023-05-27T06:24:22.113Z,100831.65
2023-05-27T06:26:55.047Z,100834.24
2023-05-27T06:29:22.819Z,100826.65
2023-05-27T06:31:50.183Z,100827.67
2023-05-27T06:34:17.682Z,100829.20
2023-05-27T06:36:46.424Z,100832.06
2023-05-27T06:39:14.191Z,100834.34
2023-05-27T06:41:41.294Z,100837.58
2023-05-27T06:44:26.880Z,100841.80
2023-05-27T06:47:04.515Z,100839.36
2023-05-27T06:49:32.171Z,100837.77
2023-05-27T06:52:01.048Z,100843.17
2023-05-27T06:54:28.856Z,100848.78
2023-05-27T06:57:03.657Z,100850.98
2023-05-27T06:59:58.867Z,100855.29
2023-05-27T07:02:27.013Z,100855.96
2023-05-27T07:04:57.229Z,100859.04
2023-05-27T07:07:24.611Z,100855.44
2023-05-27T07:09:52.173Z,100856.08
2023-05-27T07:12:19.719Z,100856.84
2023-05-27T07:14:51.274Z,100857.77
2023-05-27T07:17:18.910Z,100857.26
2023-05-27T07:19:46.764Z,100862.09
2023-05-27T07:22:17.166Z,100853.42
2023-05-27T07:24:45.195Z,100851.60
2023-05-27T07:27:12.355Z,100855.27
2023-05-27T07:29:42.367Z,100857.24
2023-05-27T07:32:11.965Z,100855.80
2023-05-27T07:34:40.045Z,100854.36
2023-05-27T07:37:08.130Z,100855.63
2023-05-27T07:39:37.453Z,100853.84
2023-05-27T07:42:05.084Z,100849.02
2023-05-27T07:44:33.035Z,100847.14
2023-05-27T07:47:02.112Z,100847.13
2023-05-27T07:49:29.387Z,100849.63
2023-05-27T07:52:18.897Z,100847.82
2023-05-27T07:54:54.445Z,100853.80
2023-05-27T07:57:24.951Z,100851.02
2023-05-27T07:59:52.489Z,100847.70
2023-05-27T08:02:19.966Z,100845.69
2023-05-27T08:04:47.985Z,100845.92
2023-05-27T08:07:44.651Z,100853.04
2023-05-27T08:10:22.509Z,100849.71
2023-05-27T08:13:08.470Z,100846.65
2023-05-27T08:15:49.627Z,100843.50
2023-05-27T08:18:35.531Z,100841.51
2023-05-27T08:21:21.711Z,100840.65
2023-05-27T08:24:09.032Z,100835.86
2023-05-27T08:26:58.300Z,100836.18
2023-05-27T08:29:35.088Z,100840.51
2023-05-27T08:32:22.939Z,100838.14
2023-05-27T08:34:50.577Z,100836.39
2023-05-27T08:37:18.548Z,100829.08
2023-05-27T08:39:47.224Z,100830.62
2023-05-27T08:42:31.892Z,100836.89
2023-05-27T08:44:59.350Z,100835.39
2023-05-27T08:47:27.715Z,100833.09
2023-05-27T08:49:56.606Z,100835.76
2023-05-27T08:52:23.664Z,100836.93
2023-05-27T08:54:50.806Z,100838.90
2023-05-27T08:57:19.997Z,100833.84
2023-05-27T08:59:47.464Z,100841.13
2023-05-27T09:02:15.003Z,100830.98
2023-05-27T09:04:42.594Z,100839.23
2023-05-27T09:07:09.836Z,100843.34
2023-05-27T09:09:38.615Z,100845.05
2023-05-27T09:12:05.953Z,100844.88
2023-05-27T09:14:33.315Z,100840.40
2023-05-27T09:17:05.946Z,100833.71
2023-05-27T09:19:33.249Z,100838.25
2023-05-27T09:22:00.291Z,100846.50
2023-05-27T09:24:27.593Z,100839.67
2023-05-27T09:26:55.232Z,100837.73
2023-05-27T09:29:26.568Z,100837.70
2023-05-27T09:31:59.733Z,100840.80
2023-05-27T09:34:31.105Z,100836.06
2023-05-27T09:36:59.062Z,100836.05
2023-05-27T09:39:26.525Z,100839.73
2023-05-27T09:41:54.695Z,100840.76
2023-05-27T09:44:21.629Z,100839.78
2023-05-27T09:46:48.791Z,100833.52
2023-05-27T09:49:16.478Z,100831.06
2023-05-27T09:51:43.529Z,100830.26
2023-05-27T09:54:11.032Z,100827.77
2023-05-27T09:56:38.201Z,100824.33
2023-05-27T09:59:07.666Z,100825.34
2023-05-27T10:01:34.806Z,100822.45
2023-05-27T10:04:01.933Z,100826.84
2023-05-27T10:06:29.097Z,100821.38
2023-05-27T10:08:59.744Z,100821.48
2023-05-27T10:11:29.400Z,100825.88
2023-05-27T10:13:57.756Z,100818.95
2023-05-27T10:16:27.246Z,100820.52
2023-05-27T10:18:57.646Z,100818.71
2023-05-27T10:21:28.014Z,100817.52
2023-05-27T10:24:01.832Z,100815.09
2023-05-27T10:26:36.579Z,100813.88
2023-05-27T10:29:10.583Z,100814.81
2023-05-27T10:31:38.844Z,100812.66
2023-05-27T10:34:07.484Z,100808.42
2023-05-27T10:36:34.690Z,100810.73
2023-05-27T10:39:05.661Z,100810.43
2023-05-27T10:41:42.394Z,100806.84
2023-05-27T10:44:09.741Z,100811.64
2023-05-27T10:46:41.114Z,100805.66
2023-05-27T10:49:15.052Z,100803.46
2023-05-27T10:51:43.642Z,100804.19
2023-05-27T10:56:50.618Z,100806.41
2023-05-27T10:59:22.018Z,100801.95
2023-05-27T11:01:55.529Z,100802.38
2023-05-27T11:04:23.759Z,100806.25
2023-05-27T11:07:04.291Z,100802.87
2023-05-27T11:09:52.569Z,100804.67
2023-05-27T11:12:23.425Z,100805.92
2023-05-27T11:14:55.985Z,100802.69
2023-05-27T11:17:23.915Z,100799.61
2023-05-27T11:19:53.776Z,100804.95
2023-05-27T11:22:20.865Z,100799.17
2023-05-27T11:25:00.408Z,100802.45
2023-05-27T11:27:33.921Z,100800.02
2023-05-27T11:30:01.282Z,100795.18
2023-05-27T11:32:28.427Z,100796.33
2023-05-27T11:34:56.379Z,100790.48
2023-05-27T11:37:23.369Z,100793.02
2023-05-27T11:39:50.855Z,100787.70
2023-05-27T11:42:21.907Z,100780.10
2023-05-27T11:44:55.381Z,100777.62
2023-05-27T11:47:23.878Z,100777.76
2023-05-27T11:49:51.116Z,100776.76
2023-05-27T11:52:18.659Z,100778.14
2023-05-27T11:54:50.341Z,100768.14
2023-05-27T11:57:26.139Z,100768.52
2023-05-27T11:59:53.136Z,100766.59
2023-05-27T12:02:22.937Z,100766.61
2023-05-27T12:04:50.329Z,100764.86
2023-05-27T12:07:20.735Z,100765.09
2023-05-27T12:09:50.465Z,100761.70
2023-05-27T12:12:19.896Z,100763.36
2023-05-27T12:14:46.856Z,100757.56
2023-05-27T12:17:13.863Z,100757.29
2023-05-27T12:19:41.046Z,100758.63
2023-05-27T12:22:10.322Z,100757.98
2023-05-27T12:24:37.900Z,100759.05
2023-05-27T12:27:05.112Z,100753.48
2023-05-27T12:29:32.148Z,100752.77
2023-05-27T12:31:59.284Z,100744.61
2023-05-27T12:34:26.964Z,100741.48
2023-05-27T12:36:53.885Z,100744.84
2023-05-27T12:39:22.202Z,100738.02
2023-05-27T12:41:49.380Z,100734.48
2023-05-27T12:44:17.234Z,100738.06
2023-05-27T12:46:44.564Z,100733.86
2023-05-27T12:49:11.787Z,100730.31
2023-05-27T12:51:39.683Z,100728.95
2023-05-27T12:54:06.791Z,100724.63
2023-05-27T12:56:33.800Z,100727.12
2023-05-27T12:59:01.086Z,100718.70
2023-05-27T13:01:28.944Z,100711.02
2023-05-27T13:03:56.453Z,100713.62
2023-05-27T13:06:23.466Z,100708.89
2023-05-27T13:08:52.047Z,100704.44
2023-05-27T13:11:19.000Z,100704.05
2023-05-27T13:13:46.349Z,100696.94
2023-05-27T13:16:15.933Z,100692.93
2023-05-27T13:18:43.451Z,100694.80
2023-05-27T13:21:11.106Z,100688.11
2023-05-27T13:23:40.918Z,100686.55
2023-05-27T13:26:07.895Z,100681.32
2023-05-27T13:28:34.953Z,100682.20
2023-05-27T13:31:02.845Z,100683.84
2023-05-27T13:33:30.086Z,100682.13
2023-05-27T13:35:57.089Z,100678.28
2023-05-27T13:38:24.227Z,100677.34
2023-05-27T13:40:51.382Z,100675.46
2023-05-27T13:43:18.825Z,100676.39
2023-05-27T13:45:45.770Z,100675.41
2023-05-27T13:48:12.769Z,100670.61
2023-05-27T13:50:39.720Z,100666.60
2023-05-27T13:53:06.763Z,100664.95
2023-05-27T13:55:35.730Z,100660.62
2023-05-27T13:58:02.738Z,100662.45
2023-05-27T14:00:31.036Z,100659.98
2023-05-27T14:03:00.819Z,100661.80
2023-05-27T14:05:31.379Z,100660.58
2023-05-27T14:07:58.410Z,100656.02
2023-05-27T14:10:25.325Z,100656.31
2023-05-27T14:12:52.466Z,100656.98
2023-05-27T14:15:19.476Z,100653.27
2023-05-27T14:17:47.726Z,100650.27
2023-05-27T14:20:14.821Z,100649.02
2023-05-27T14:22:43.642Z,100649.48
2023-05-27T14:25:11.158Z,100644.72
2023-05-27T14:27:38.980Z,100640.58
2023-05-27T14:30:06.521Z,100639.80
2023-05-27T14:32:33.526Z,100639.86
2023-05-27T14:35:03.498Z,100640.34
2023-05-27T14:37:30.520Z,100632.29
2023-05-27T14:39:57.629Z,100632.27
2023-05-27T14:42:24.948Z,100628.19
2023-05-27T14:44:52.032Z,100622.23
2023-05-27T14:47:19.812Z,100619.16
2023-05-27T14:49:46.917Z,100617.92
2023-05-27T14:52:13.984Z,100614.73
2023-05-27T14:54:41.109Z,100609.88
2023-05-27T14:57:08.637Z,100611.04
2023-05-27T14:59:46.665Z,100607.88
2023-05-27T15:02:16.825Z,100604.66
2023-05-27T15:04:43.928Z,100602.21
2023-05-27T15:07:14.182Z,100601.00
2023-05-27T15:09:42.916Z,100598.65
2023-05-27T15:12:09.913Z,100599.14
2023-05-27T15:14:36.914Z,100595.21
2023-05-27T15:17:07.502Z,100596.39
2023-05-27T15:19:34.507Z,100596.50
2023-05-27T15:22:01.825Z,100594.52
2023-05-27T15:24:28.866Z,100593.21
2023-05-27T15:26:57.281Z,100594.69
2023-05-27T15:29:24.896Z,100591.41
2023-05-27T15:31:52.156Z,100591.17
2023-05-27T15:34:19.097Z,100588.60
2023-05-27T15:36:46.009Z,100594.36
2023-05-27T15:39:13.550Z,100593.34
2023-05-27T15:41:41.202Z,100593.18
2023-05-27T15:44:08.213Z,100590.71
2023-05-27T15:46:35.219Z,100590.77
2023-05-27T15:49:02.176Z,100588.21
2023-05-27T15:51:29.244Z,100592.19
2023-05-27T15:53:56.270Z,100588.91
2023-05-27T15:56:24.046Z,100587.95
2023-05-27T15:58:51.059Z,100588.00
2023-05-27T16:01:18.067Z,100582.08
2023-05-27T16:03:45.432Z,100583.14
2023-05-27T16:06:12.443Z,100581.89
2023-05-27T16:08:39.489Z,100582.19
2023-05-27T16:11:06.449Z,100582.51
2023-05-27T16:13:33.501Z,100584.37
2023-05-27T16:16:03.937Z,100582.35
2023-05-27T16:18:33.163Z,100577.35
2023-05-27T16:21:01.483Z,100574.41
2023-05-27T16:23:28.957Z,100570.40
2023-05-27T16:25:56.518Z,100568.28
2023-05-27T16:28:24.194Z,100568.18
2023-05-27T16:30:52.236Z,100569.90
2023-05-27T16:33:20.100Z,100569.38
2023-05-27T16:35:47.888Z,100575.45
2023-05-27T16:38:16.672Z,100574.45
2023-05-27T16:40:43.622Z,100570.08
2023-05-27T16:43:10.876Z,100573.84
2023-05-27T16:45:38.246Z,100575.86
2023-05-27T16:48:08.372Z,100580.80
2023-05-27T16:50:36.242Z,100579.70
2023-05-27T16:53:03.563Z,100582.05
2023-05-27T16:55:32.281Z,100579.71
2023-05-27T16:57:59.679Z,100585.43
2023-05-27T17:00:27.330Z,100589.69
2023-05-27T17:02:54.836Z,100590.68
2023-05-27T17:05:21.975Z,100588.84
2023-05-27T17:07:53.120Z,100586.44
2023-05-27T17:10:21.389Z,100586.80
2023-05-27T17:12:49.582Z,100593.64
2023-05-27T17:15:17.132Z,100596.39
2023-05-27T17:17:44.208Z,100601.91
2023-05-27T17:20:19.570Z,100601.64
2023-05-27T17:22:46.752Z,100604.00
2023-05-27T17:25:14.688Z,100607.62
2023-05-27T17:27:42.401Z,100610.36
2023-05-27T17:30:09.864Z,100613.84
2023-05-27T17:32:37.095Z,100614.83
2023-05-27T17:35:04.556Z,100620.30
2023-05-27T17:37:31.621Z,100622.52
2023-05-27T17:39:59.777Z,100627.58
2023-05-27T17:42:27.036Z,100630.23
2023-05-27T17:44:54.282Z,100633.98
2023-05-27T17:47:21.435Z,100638.05
2023-05-27T17:49:48.581Z,100641.71
2023-05-27T17:52:21.453Z,100643.66
2023-05-27T17:54:49.036Z,100646.77
2023-05-27T17:57:16.174Z,100652.35
2023-05-27T17:59:44.994Z,100654.08
2023-05-27T18:02:14.001Z,100657.39
2023-05-27T18:04:41.291Z,100658.14
2023-05-27T18:07:08.348Z,100663.81
2023-05-27T18:09:35.615Z,100664.36
2023-05-27T18:12:07.165Z,100662.71
2023-05-27T18:14:36.262Z,100667.13
2023-05-27T18:17:06.985Z,100668.55
2023-05-27T18:19:34.596Z,100669.73
2023-05-27T18:22:02.621Z,100669.42
2023-05-27T18:24:34.595Z,100671.33
2023-05-27T18:27:02.545Z,100671.95
2023-05-27T18:29:29.796Z,100672.37
2023-05-27T18:31:57.049Z,100670.11
2023-05-27T18:34:24.310Z,100675.55
2023-05-27T18:36:51.675Z,100678.80
2023-05-27T18:39:19.040Z,100683.45
2023-05-27T18:41:46.373Z,100684.17
2023-05-27T18:44:17.093Z,100684.48
2023-05-27T18:46:44.194Z,100685.80
2023-05-27T18:49:11.932Z,100689.77
2023-05-27T18:51:39.275Z,100691.93
2023-05-27T18:54:06.757Z,100693.95
2023-05-27T18:56:33.764Z,100694.88
2023-05-27T18:59:01.481Z,100700.63
2023-05-27T19:01:28.906Z,100702.30
2023-05-27T19:03:58.617Z,100703.75
2023-05-27T19:06:30.147Z,100709.54
2023-05-27T19:08:57.811Z,100712.11
2023-05-27T19:11:28.539Z,100714.13
2023-05-27T19:13:57.811Z,100712.65
2023-05-27T19:16:26.998Z,100712.96
2023-05-27T19:18:56.133Z,100717.71
2023-05-27T19:21:24.102Z,100717.38
2023-05-27T19:23:51.760Z,100716.98
2023-05-27T19:26:19.104Z,100723.19
2023-05-27T19:28:48.619Z,100720.84
2023-05-27T19:31:16.473Z,100723.39
2023-05-27T19:33:44.201Z,100719.71
2023-05-27T19:36:11.902Z,100724.78
2023-05-27T19:38:39.380Z,100728.48
2023-05-27T19:41:11.851Z,100730.83
2023-05-27T19:43:39.596Z,100730.58
2023-05-27T19:46:08.256Z,100728.33
2023-05-27T19:48:40.139Z,100729.95
2023-05-27T19:51:08.105Z,100727.67
2023-05-27T19:53:35.262Z,100723.77
2023-05-27T19:56:05.983Z,100726.09
2023-05-27T19:58:35.684Z,100726.81
2023-05-27T20:01:03.577Z,100724.38
2023-05-27T20:03:32.533Z,100726.11
2023-05-27T20:06:01.798Z,100729.98
2023-05-27T20:08:30.117Z,100731.02
2023-05-27T20:10:58.007Z,100729.02
2023-05-27T20:13:27.296Z,100729.44
2023-05-27T20:15:54.979Z,100731.41
2023-05-27T20:18:26.775Z,100733.14
2023-05-27T20:20:55.384Z,100735.55
2023-05-27T20:23:23.911Z,100730.90
2023-05-27T20:25:52.279Z,100735.41
2023-05-27T20:28:19.530Z,100736.36
2023-05-27T20:30:49.724Z,100740.39
2023-05-27T20:33:18.873Z,100740.96
2023-05-27T20:35:47.374Z,100742.77
2023-05-27T20:38:16.612Z,100740.23
2023-05-27T20:40:44.321Z,100740.85
2023-05-27T20:43:13.180Z,100740.09
2023-05-27T20:45:41.025Z,100739.42
2023-05-27T20:48:10.415Z,100740.23
2023-05-27T20:50:37.720Z,100743.23
2023-05-27T20:53:08.541Z,100743.95
2023-05-27T20:55:36.602Z,100743.42
2023-05-27T20:58:05.727Z,100743.90
2023-05-27T21:00:34.400Z,100742.79
2023-05-27T21:03:02.995Z,100746.16
2023-05-27T21:05:30.417Z,100746.39
2023-05-27T21:07:57.793Z,100745.24
2023-05-27T21:10:27.018Z,100746.16
2023-05-27T21:12:55.757Z,100746.41
2023-05-27T21:15:23.216Z,100743.13
2023-05-27T21:17:53.665Z,100742.33
2023-05-27T21:20:21.558Z,100743.97
2023-05-27T21:22:49.892Z,100745.05
2023-05-27T21:25:18.605Z,100741.82
2023-05-27T21:27:46.328Z,100741.79
2023-05-27T21:30:15.339Z,100735.85
2023-05-27T21:32:42.656Z,100738.69
2023-05-27T21:35:11.062Z,100734.75
2023-05-27T21:37:38.420Z,100732.13
2023-05-27T21:40:07.096Z,100736.26
2023-05-27T21:42:34.949Z,100737.15
2023-05-27T21:45:02.123Z,100735.13
2023-05-27T21:47:29.843Z,100734.31
2023-05-27T21:49:57.229Z,100735.48
2023-05-27T21:52:29.459Z,100735.96
2023-05-27T21:54:56.961Z,100734.69
2023-05-27T21:57:28.624Z,100729.85
2023-05-27T21:59:57.561Z,100733.71
2023-05-27T22:02:25.276Z,100733.75
2023-05-27T22:04:53.239Z,100731.39
2023-05-27T22:07:21.325Z,100727.77
2023-05-27T22:09:48.665Z,100721.56
2023-05-27T22:12:15.997Z,100723.96
2023-05-27T22:14:45.219Z,100720.09
2023-05-27T22:17:12.258Z,100723.02
2023-05-27T22:19:39.712Z,100719.48
2023-05-27T22:22:09.120Z,100715.55
2023-05-27T22:24:36.358Z,100714.31
2023-05-27T22:27:03.845Z,100710.55
2023-05-27T22:29:31.397Z,100707.89
2023-05-27T22:31:58.693Z,100704.73
2023-05-27T22:34:26.252Z,100704.70
2023-05-27T22:36:53.299Z,100703.29
2023-05-27T22:39:20.589Z,100705.45
2023-05-27T22:41:47.847Z,100701.54
2023-05-27T22:44:15.090Z,100700.70
2023-05-27T22:46:42.467Z,100700.02
2023-05-27T22:49:10.914Z,100691.75
2023-05-27T22:51:41.366Z,100687.98
2023-05-27T22:54:08.912Z,100686.55
2023-05-27T22:56:36.565Z,100682.30
2023-05-27T22:59:04.151Z,100679.47
2023-05-27T23:01:31.446Z,100679.85
2023-05-27T23:03:59.077Z,100678.33
2023-05-27T23:06:26.630Z,100672.34
2023-05-27T23:08:53.860Z,100675.56
2023-05-27T23:11:21.114Z,100675.12
2023-05-27T23:13:48.586Z,100671.46
2023-05-27T23:16:15.855Z,100668.58
2023-05-27T23:18:45.836Z,100671.98
2023-05-27T23:21:13.193Z,100672.70
2023-05-27T23:23:40.646Z,100672.88
2023-05-27T23:26:08.106Z,100670.25
2023-05-27T23:28:38.718Z,100670.08
2023-05-27T23:31:06.195Z,100666.33
2023-05-27T23:33:33.648Z,100661.69
2023-05-27T23:36:02.440Z,100661.58
2023-05-27T23:38:29.476Z,100659.42
2023-05-27T23:40:56.625Z,100657.43
2023-05-27T23:43:24.086Z,100657.39
2023-05-27T23:45:51.351Z,100659.05
2023-05-27T23:48:18.796Z,100660.23
2023-05-27T23:50:46.551Z,100655.89
2023-05-27T23:53:13.620Z,100653.70
2023-05-27T23:55:40.749Z,100650.89
2023-05-27T23:58:07.805Z,100644.75
